Time;durP1;ratioP1;P1;durP2;ratioP2;P2;SDS_P1;SDS_P2;PMS_P1;PMS_P2;Temp;Humidity;BMP_temperature;BMP_pressure;BME280_temperature;BME280_humidity;BME280_pressure;Samples;Min_cycle;Max_cycle;Signal;HPM_P1;HPM_P2
2023/08/30 00:00:18;;;;;;;5.05;2.42;;;22.80;90.40;;;;;;5055368;28;20063;-64
2023/08/30 00:02:45;;;;;;;5.50;2.65;;;22.80;90.10;;;;;;5052497;28;20040;-65
2023/08/30 00:05:10;;;;;;;4.78;2.53;;;23.00;90.60;;;;;;5055167;28;20045;-65
2023/08/30 00:07:36;;;;;;;4.82;2.60;;;22.80;90.60;;;;;;5053220;28;20509;-63
2023/08/30 00:10:03;;;;;;;4.13;2.65;;;22.70;90.60;;;;;;5039855;28;20053;-63
2023/08/30 00:12:29;;;;;;;4.30;2.78;;;22.70;90.50;;;;;;5072697;28;20079;-63
2023/08/30 00:14:55;;;;;;;4.70;2.60;;;23.00;90.70;;;;;;5074688;28;20101;-64
2023/08/30 00:17:21;;;;;;;4.32;2.88;;;22.50;92.00;;;;;;5044674;28;20052;-64
2023/08/30 00:19:48;;;;;;;4.75;2.80;;;22.80;90.70;;;;;;5041195;28;20045;-64
2023/08/30 00:22:14;;;;;;;6.40;3.05;;;22.70;92.20;;;;;;5055729;28;20047;-65
2023/08/30 00:24:40;;;;;;;4.13;2.50;;;22.80;90.60;;;;;;5036846;28;20044;-62
2023/08/30 00:27:06;;;;;;;5.13;2.95;;;22.80;90.60;;;;;;5055824;28;20102;-69
2023/08/30 00:29:31;;;;;;;5.82;2.55;;;22.90;90.60;;;;;;5054358;28;20502;-68
2023/08/30 00:31:57;;;;;;;5.00;2.70;;;22.80;90.60;;;;;;5053769;28;20045;-70
2023/08/30 00:34:23;;;;;;;6.68;2.72;;;22.60;90.60;;;;;;5067739;28;20041;-67
2023/08/30 00:36:49;;;;;;;4.70;2.88;;;22.70;90.60;;;;;;5070599;28;20093;-66
2023/08/30 00:39:14;;;;;;;4.40;2.67;;;22.70;90.60;;;;;;5052826;28;20044;-71
2023/08/30 00:41:40;;;;;;;4.20;2.67;;;22.90;90.70;;;;;;5054675;28;20080;-62
2023/08/30 00:44:06;;;;;;;4.53;2.67;;;22.60;90.60;;;;;;5041568;28;20041;-63
2023/08/30 00:46:32;;;;;;;5.10;2.78;;;22.50;90.60;;;;;;5054476;28;20124;-64
2023/08/30 00:48:59;;;;;;;4.20;2.67;;;22.60;90.60;;;;;;5053332;28;20037;-64
2023/08/30 00:51:25;;;;;;;5.07;2.90;;;22.60;92.20;;;;;;5060706;28;20513;-62
2023/08/30 00:53:50;;;;;;;4.85;2.97;;;22.80;90.60;;;;;;5071847;28;20080;-64
2023/08/30 00:56:16;;;;;;;5.60;3.00;;;22.70;90.60;;;;;;5063682;28;20127;-62
2023/08/30 00:58:42;;;;;;;4.80;3.13;;;22.50;90.60;;;;;;5066663;28;20056;-67
2023/08/30 01:01:09;;;;;;;6.25;3.10;;;22.60;90.50;;;;;;5065562;28;20085;-66
2023/08/30 01:03:35;;;;;;;4.75;3.10;;;22.60;92.00;;;;;;5070667;28;20120;-66
2023/08/30 01:06:01;;;;;;;5.93;3.17;;;22.60;92.10;;;;;;5070399;28;20084;-68
2023/08/30 01:08:27;;;;;;;5.55;2.95;;;22.80;90.70;;;;;;5058508;28;20095;-66
2023/08/30 01:10:55;;;;;;;5.43;3.17;;;22.60;90.70;;;;;;5052599;28;20087;-66
2023/08/30 01:13:21;;;;;;;4.80;3.00;;;22.60;90.80;;;;;;5051612;28;20041;-69
2023/08/30 01:15:48;;;;;;;5.20;3.10;;;22.70;90.70;;;;;;5059400;28;20508;-68
2023/08/30 01:18:14;;;;;;;5.60;3.28;;;22.70;90.70;;;;;;5035629;28;20134;-69
2023/08/30 01:20:40;;;;;;;5.35;3.15;;;22.60;90.80;;;;;;5052594;28;20048;-70
2023/08/30 01:23:17;;;;;;;4.00;2.80;;;22.40;90.60;;;;;;5054806;28;20463;-70
2023/08/30 01:26:04;;;;;;;6.85;2.85;;;22.60;90.90;;;;;;5036385;28;20509;-69
2023/08/30 01:28:30;;;;;;;5.13;3.08;;;22.40;91.00;;;;;;5035089;28;20076;-67
2023/08/30 01:30:57;;;;;;;5.05;3.17;;;22.60;92.20;;;;;;5052090;28;20119;-68
2023/08/30 01:33:23;;;;;;;7.60;3.20;;;22.40;90.70;;;;;;5052765;28;20502;-66
2023/08/30 01:35:48;;;;;;;5.47;3.25;;;22.60;90.80;;;;;;5040630;28;20040;-68
2023/08/30 01:38:14;;;;;;;4.68;3.10;;;22.30;90.60;;;;;;5061410;28;20044;-67
2023/08/30 01:40:42;;;;;;;4.57;3.13;;;22.40;90.70;;;;;;5035168;28;20044;-64
2023/08/30 01:43:08;;;;;;;6.90;3.33;;;22.30;90.80;;;;;;5035605;28;20056;-70
2023/08/30 01:45:35;;;;;;;5.97;3.17;;;22.50;90.80;;;;;;5043538;28;20044;-68
2023/08/30 01:48:01;;;;;;;5.63;2.97;;;22.60;92.20;;;;;;5047835;28;20056;-68
2023/08/30 01:50:27;;;;;;;6.07;3.33;;;22.80;92.20;;;;;;5070315;28;20110;-68
2023/08/30 01:52:52;;;;;;;6.30;3.30;;;22.40;91.80;;;;;;5043078;28;20209;-66
2023/08/30 01:55:18;;;;;;;5.25;3.38;;;22.40;90.70;;;;;;5071380;28;20540;-68
2023/08/30 01:57:44;;;;;;;4.70;3.35;;;22.40;90.70;;;;;;5035007;28;20101;-66
2023/08/30 02:00:10;;;;;;;5.93;3.55;;;22.60;90.60;;;;;;5051310;28;20052;-68
2023/08/30 02:02:36;;;;;;;4.95;3.20;;;22.60;92.20;;;;;;5071135;28;20484;-69
2023/08/30 02:05:02;;;;;;;4.70;3.10;;;22.70;90.80;;;;;;5036350;28;20186;-67
2023/08/30 02:08:10;;;;;;;4.75;3.13;;;22.20;90.60;;;;;;5052667;28;20033;-66
2023/08/30 02:10:37;;;;;;;5.53;3.40;;;22.60;90.30;;;;;;4962205;28;20076;-63
2023/08/30 02:13:04;;;;;;;4.93;2.92;;;22.30;91.90;;;;;;4982584;28;20057;-66
2023/08/30 02:15:30;;;;;;;5.20;2.80;;;22.50;90.90;;;;;;4974396;28;20054;-68
2023/08/30 02:17:56;;;;;;;4.68;3.10;;;22.40;92.30;;;;;;4955760;28;20078;-66
2023/08/30 02:20:22;;;;;;;6.45;3.60;;;22.80;92.40;;;;;;4971634;28;20054;-66
2023/08/30 02:22:47;;;;;;;4.85;3.35;;;22.30;92.00;;;;;;4957943;28;20069;-65
2023/08/30 02:25:13;;;;;;;7.15;3.40;;;22.50;90.80;;;;;;4955982;28;20090;-64
2023/08/30 02:27:39;;;;;;;5.35;3.20;;;22.40;90.70;;;;;;4972786;28;20054;-70
2023/08/30 02:30:05;;;;;;;6.43;3.30;;;22.50;90.70;;;;;;4987553;28;20046;-63
2023/08/30 02:32:31;;;;;;;6.25;3.30;;;22.20;90.60;;;;;;4990621;28;20058;-67
2023/08/30 02:34:57;;;;;;;5.28;3.25;;;22.30;91.90;;;;;;4990070;28;20057;-65
2023/08/30 02:37:23;;;;;;;5.50;3.13;;;22.20;92.00;;;;;;4971890;28;20108;-65
2023/08/30 02:39:49;;;;;;;5.28;3.40;;;22.40;91.00;;;;;;4990718;28;20046;-66
2023/08/30 02:42:15;;;;;;;4.90;3.17;;;22.60;90.90;;;;;;4972905;28;20508;-66
2023/08/30 02:44:40;;;;;;;6.25;3.10;;;22.40;90.80;;;;;;4989468;28;20057;-66
2023/08/30 02:47:06;;;;;;;5.70;3.35;;;22.20;90.70;;;;;;5045590;28;20076;-68
2023/08/30 02:49:32;;;;;;;5.10;3.10;;;22.20;91.80;;;;;;5056436;28;20175;-63
2023/08/30 02:51:58;;;;;;;5.53;3.42;;;22.50;90.70;;;;;;5051659;28;20041;-67
2023/08/30 02:54:23;;;;;;;5.80;3.05;;;22.30;90.80;;;;;;5061581;28;20048;-68
2023/08/30 02:56:49;;;;;;;4.85;3.15;;;22.40;90.70;;;;;;5067649;28;20124;-66
2023/08/30 02:59:15;;;;;;;5.03;3.30;;;22.40;92.30;;;;;;5073639;28;20049;-68
2023/08/30 03:01:41;;;;;;;5.30;3.38;;;22.10;90.60;;;;;;5061505;28;20433;-67
2023/08/30 03:04:07;;;;;;;4.65;3.20;;;22.10;92.20;;;;;;5053865;28;20044;-66
2023/08/30 03:06:33;;;;;;;5.78;3.60;;;22.20;90.70;;;;;;5054213;28;20075;-66
2023/08/30 03:08:59;;;;;;;5.10;3.10;;;22.20;91.80;;;;;;5039023;28;20111;-63
2023/08/30 03:11:25;;;;;;;6.05;3.53;;;22.30;91.70;;;;;;5053989;28;20048;-67
2023/08/30 03:13:50;;;;;;;5.18;3.58;;;22.20;92.20;;;;;;5073955;28;20048;-64
2023/08/30 03:16:16;;;;;;;5.60;3.10;;;22.30;90.60;;;;;;5072415;28;20131;-67
2023/08/30 03:18:42;;;;;;;5.43;3.80;;;22.40;90.70;;;;;;5076414;28;20098;-66
2023/08/30 03:21:08;;;;;;;5.80;3.20;;;22.30;90.70;;;;;;5041854;28;20059;-65
2023/08/30 03:23:35;;;;;;;5.35;3.50;;;22.20;90.60;;;;;;5075913;28;20053;-66
2023/08/30 03:26:16;;;;;;;5.95;3.63;;;22.20;90.60;;;;;;5077080;28;20382;-65
2023/08/30 03:28:43;;;;;;;5.95;3.67;;;22.00;90.70;;;;;;5053895;28;20052;-64
2023/08/30 03:31:14;;;;;;;4.95;3.50;;;22.20;90.90;;;;;;5094478;28;20504;-64
2023/08/30 03:33:43;;;;;;;6.63;4.15;;;22.00;90.70;;;;;;5058448;28;20109;-64
2023/08/30 03:36:13;;;;;;;5.78;3.97;;;22.20;91.60;;;;;;5045115;28;20055;-65
2023/08/30 03:38:39;;;;;;;6.70;3.63;;;22.00;90.60;;;;;;5069055;28;20115;-65
2023/08/30 03:41:05;;;;;;;4.88;3.25;;;22.00;90.50;;;;;;5041911;28;20124;-64
2023/08/30 03:43:31;;;;;;;5.78;3.50;;;22.10;90.50;;;;;;5082953;28;20047;-64
2023/08/30 03:45:58;;;;;;;5.15;3.50;;;22.00;91.60;;;;;;5058587;28;20059;-65
2023/08/30 03:48:23;;;;;;;5.50;3.60;;;22.10;91.60;;;;;;5049169;28;20056;-64
2023/08/30 03:50:50;;;;;;;6.38;4.20;;;;;;;;;;5059564;28;20040;-63
2023/08/30 03:53:15;;;;;;;5.40;3.60;;;22.10;91.50;;;;;;5060111;28;20090;-65
2023/08/30 03:55:41;;;;;;;5.63;3.92;;;22.10;91.80;;;;;;5065973;28;20125;-64
2023/08/30 03:58:07;;;;;;;6.10;4.13;;;22.10;91.90;;;;;;5075079;28;20533;-63
2023/08/30 04:00:36;;;;;;;5.63;4.25;;;21.90;90.30;;;;;;5075825;28;20113;-64
2023/08/30 04:03:02;;;;;;;6.32;4.15;;;22.00;90.50;;;;;;5085523;28;20073;-64
2023/08/30 04:05:33;;;;;;;6.50;3.88;;;22.10;90.40;;;;;;5069441;28;20044;-63
2023/08/30 04:07:59;;;;;;;7.25;3.45;;;22.00;91.40;;;;;;5046336;28;20054;-64
2023/08/30 04:10:25;;;;;;;5.30;3.60;;;22.10;91.80;;;;;;5092815;28;20050;-69
2023/08/30 04:12:51;;;;;;;6.13;3.78;;;22.10;90.40;;;;;;5095139;28;20115;-69
2023/08/30 04:15:17;;;;;;;6.38;3.78;;;21.90;91.80;;;;;;5091488;28;20036;-69
2023/08/30 04:17:43;;;;;;;5.40;3.35;;;21.90;91.70;;;;;;5063310;28;20036;-65
2023/08/30 04:20:10;;;;;;;5.38;3.53;;;21.80;91.40;;;;;;5092381;28;20057;-69
2023/08/30 04:22:36;;;;;;;5.43;3.72;;;21.90;91.50;;;;;;5063165;28;20055;-67
2023/08/30 04:25:03;;;;;;;6.85;4.18;;;22.20;90.50;;;;;;5080977;28;20432;-66
2023/08/30 04:27:28;;;;;;;5.35;3.65;;;21.80;91.40;;;;;;5071058;28;20040;-65
2023/08/30 04:29:54;;;;;;;5.50;3.67;;;22.00;90.30;;;;;;5092235;28;20397;-70
2023/08/30 04:32:20;;;;;;;6.38;3.67;;;21.90;91.80;;;;;;5088758;28;20044;-70
2023/08/30 04:34:46;;;;;;;5.43;3.63;;;22.10;90.30;;;;;;5074196;28;20068;-66
2023/08/30 04:37:11;;;;;;;5.88;3.95;;;22.00;90.20;;;;;;5073998;28;20105;-66
2023/08/30 04:39:37;;;;;;;5.10;3.55;;;22.10;90.30;;;;;;5075341;28;20054;-62
2023/08/30 04:42:03;;;;;;;4.90;3.20;;;21.80;90.20;;;;;;5071117;28;20052;-63
2023/08/30 04:44:31;;;;;;;5.20;3.80;;;21.90;91.30;;;;;;5091088;28;20040;-63
2023/08/30 04:46:57;;;;;;;5.68;3.70;;;21.90;90.20;;;;;;5093172;28;20048;-63
2023/08/30 04:49:25;;;;;;;5.57;3.80;;;21.70;91.40;;;;;;5091708;28;20043;-67
2023/08/30 04:51:51;;;;;;;6.82;3.85;;;21.90;91.50;;;;;;5061456;28;20055;-67
2023/08/30 04:54:17;;;;;;;6.28;3.95;;;21.80;90.20;;;;;;5056535;28;20101;-67
2023/08/30 04:56:43;;;;;;;5.15;3.30;;;21.90;90.10;;;;;;5039195;28;20045;-69
2023/08/30 04:59:08;;;;;;;4.85;3.33;;;21.90;91.10;;;;;;5072447;28;20134;-66
2023/08/30 05:01:34;;;;;;;5.85;3.40;;;21.90;91.20;;;;;;5076341;28;20127;-71
2023/08/30 05:04:00;;;;;;;4.90;2.83;;;21.70;90.00;;;;;;5068382;28;20047;-68
2023/08/30 05:06:26;;;;;;;7.18;3.10;;;21.90;90.10;;;;;;5062692;28;20054;-70
2023/08/30 05:08:52;;;;;;;5.85;3.42;;;21.70;90.00;;;;;;5083029;28;20045;-66
2023/08/30 05:11:18;;;;;;;6.72;4.60;;;21.90;90.10;;;;;;5092039;28;20036;-68
2023/08/30 05:13:44;;;;;;;8.73;5.82;;;21.90;90.80;;;;;;5075786;28;20040;-62
2023/08/30 05:16:09;;;;;;;8.10;5.80;;;21.70;90.50;;;;;;5069082;28;20044;-63
2023/08/30 05:18:35;;;;;;;7.93;6.70;;;21.70;90.50;;;;;;5055828;28;20153;-61
2023/08/30 05:21:03;;;;;;;11.13;6.03;;;21.70;88.80;;;;;;5078983;28;20491;-66
2023/08/30 05:23:29;;;;;;;12.07;7.38;;;21.60;90.40;;;;;;5075711;28;20055;-62
2023/08/30 05:25:55;;;;;;;12.55;6.43;;;21.40;90.10;;;;;;5087998;28;20037;-62
2023/08/30 05:28:20;;;;;;;11.18;6.93;;;21.30;90.40;;;;;;5076615;28;20076;-70
2023/08/30 05:30:46;;;;;;;9.48;6.88;;;21.20;90.20;;;;;;5079895;28;20085;-71
2023/08/30 05:33:12;;;;;;;9.20;6.85;;;;;;;;;;5072869;28;20059;-62
2023/08/30 05:35:38;;;;;;;14.40;7.60;;;21.10;90.20;;;;;;5086148;28;20044;-62
2023/08/30 05:38:04;;;;;;;10.48;6.65;;;21.00;90.20;;;;;;5086808;28;20074;-62
2023/08/30 05:40:30;;;;;;;11.07;7.10;;;;;;;;;;5071645;28;20390;-61
2023/08/30 05:42:56;;;;;;;10.90;7.10;;;21.00;90.30;;;;;;5079685;28;20056;-62
2023/08/30 05:45:21;;;;;;;12.13;8.43;;;20.80;90.10;;;;;;5073972;28;20123;-62
2023/08/30 05:47:48;;;;;;;11.20;8.02;;;21.00;90.00;;;;;;5092493;28;20047;-63
2023/08/30 05:50:13;;;;;;;10.85;8.57;;;20.80;90.00;;;;;;5078136;28;20126;-61
2023/08/30 05:52:44;;;;;;;11.02;7.10;;;20.80;90.10;;;;;;5085506;28;20120;-62
2023/08/30 05:55:10;;;;;;;8.13;6.13;;;20.90;90.40;;;;;;5076844;28;20063;-67
2023/08/30 05:57:36;;;;;;;11.40;6.20;;;21.00;88.60;;;;;;5092933;28;20036;-71
2023/08/30 06:00:02;;;;;;;8.70;6.15;;;21.00;90.80;;;;;;5092349;28;20520;-72
2023/08/30 06:02:27;;;;;;;12.02;5.30;;;21.00;91.00;;;;;;5073474;28;20123;-67
2023/08/30 06:04:53;;;;;;;9.18;5.13;;;20.90;88.80;;;;;;5093119;28;20481;-73
2023/08/30 06:07:19;;;;;;;7.88;4.50;;;21.00;88.70;;;;;;5083285;28;20116;-73
2023/08/30 06:09:45;;;;;;;9.00;4.68;;;21.30;90.50;;;;;;5084834;28;20397;-70
2023/08/30 06:12:11;;;;;;;7.88;4.80;;;21.30;90.50;;;;;;5081734;28;20117;-68
2023/08/30 06:14:36;;;;;;;7.45;4.00;;;21.40;88.50;;;;;;5072467;28;20048;-71
2023/08/30 06:17:02;;;;;;;8.60;4.25;;;21.60;90.40;;;;;;5089036;28;20044;-66
2023/08/30 06:19:28;;;;;;;9.70;4.68;;;21.90;90.90;;;;;;5089180;28;20142;-67
2023/08/30 06:21:54;;;;;;;7.55;4.07;;;21.30;88.30;;;;;;5092005;28;20447;-67
2023/08/30 06:24:20;;;;;;;7.20;4.25;;;21.80;88.50;;;;;;5083467;28;20048;-66
2023/08/30 06:26:45;;;;;;;6.72;3.95;;;21.60;90.30;;;;;;5084364;28;20127;-66
2023/08/30 06:29:11;;;;;;;7.30;4.00;;;21.80;88.50;;;;;;5091243;28;20043;-67
2023/08/30 06:31:39;;;;;;;8.18;4.10;;;21.80;90.30;;;;;;5092552;28;20040;-66
2023/08/30 06:34:05;;;;;;;7.57;3.90;;;21.90;90.40;;;;;;5091451;28;20047;-65
2023/08/30 06:36:30;;;;;;;7.53;3.88;;;21.80;88.30;;;;;;5084096;28;20043;-70
2023/08/30 06:38:56;;;;;;;7.05;4.20;;;21.90;88.40;;;;;;5078467;28;20119;-65
2023/08/30 06:41:23;;;;;;;8.43;3.65;;;21.90;88.10;;;;;;5055116;28;20490;-70
2023/08/30 06:43:49;;;;;;;7.03;3.58;;;22.00;90.40;;;;;;5070248;28;20052;-72
2023/08/30 06:46:14;;;;;;;8.18;4.53;;;22.20;88.20;;;;;;5072433;28;20164;-73
2023/08/30 06:48:40;;;;;;;6.50;3.60;;;22.00;88.00;;;;;;5092262;28;20059;-65
2023/08/30 06:51:06;;;;;;;7.40;4.20;;;22.10;90.10;;;;;;5083705;28;20115;-70
2023/08/30 06:53:32;;;;;;;6.72;4.00;;;22.30;88.00;;;;;;5041298;28;20070;-65
2023/08/30 06:55:59;;;;;;;7.45;3.75;;;21.80;87.80;;;;;;5093168;28;20048;-65
2023/08/30 06:58:25;;;;;;;7.30;3.70;;;22.10;88.20;;;;;;5051656;28;20080;-72
2023/08/30 07:00:50;;;;;;;7.78;4.10;;;21.90;87.80;;;;;;5076496;28;20113;-65
2023/08/30 07:03:16;;;;;;;6.88;4.18;;;22.10;87.90;;;;;;5058385;28;20048;-69
2023/08/30 07:05:43;;;;;;;6.65;4.05;;;22.40;88.00;;;;;;5071344;28;20043;-68
2023/08/30 07:08:09;;;;;;;9.48;4.18;;;22.10;90.10;;;;;;5086841;28;20053;-70
2023/08/30 07:10:35;;;;;;;6.65;4.00;;;22.10;90.30;;;;;;5069965;28;20455;-73
2023/08/30 07:13:01;;;;;;;6.25;3.78;;;22.10;90.00;;;;;;5078314;28;20055;-73
2023/08/30 07:15:27;;;;;;;9.77;4.40;;;22.30;87.70;;;;;;5067722;28;20398;-67
2023/08/30 07:17:53;;;;;;;7.13;3.90;;;22.00;87.80;;;;;;5076037;28;20112;-67
2023/08/30 07:20:19;;;;;;;5.72;3.90;;;22.00;87.50;;;;;;5081446;28;20608;-73
2023/08/30 07:22:45;;;;;;;8.02;3.67;;;22.00;87.50;;;;;;5076998;28;20131;-68
2023/08/30 07:25:12;;;;;;;7.63;4.10;;;21.90;90.20;;;;;;5070213;28;20398;-70
2023/08/30 07:27:37;;;;;;;8.88;4.40;;;22.20;87.60;;;;;;5057399;28;20056;-65
2023/08/30 07:30:04;;;;;;;6.32;3.97;;;22.20;89.70;;;;;;5058188;28;20052;-70
2023/08/30 07:32:30;;;;;;;6.97;4.10;;;22.10;89.70;;;;;;5085365;28;20397;-68
2023/08/30 07:34:56;;;;;;;6.25;4.32;;;22.30;87.30;;;;;;5057766;28;20044;-69
2023/08/30 07:37:21;;;;;;;6.43;4.18;;;22.40;87.30;;;;;;5075437;28;20382;-62
2023/08/30 07:39:47;;;;;;;6.22;4.22;;;22.40;87.90;;;;;;5057493;28;20048;-62
2023/08/30 07:42:14;;;;;;;6.65;4.47;;;22.30;87.10;;;;;;5057505;28;20063;-64
2023/08/30 07:44:40;;;;;;;6.78;4.38;;;22.20;87.20;;;;;;5057461;28;20087;-66
2023/08/30 07:47:06;;;;;;;7.68;4.30;;;22.10;89.90;;;;;;5077505;28;20101;-70
2023/08/30 07:49:32;;;;;;;6.82;4.20;;;22.10;87.00;;;;;;5081188;28;20056;-71
2023/08/30 07:51:58;;;;;;;7.40;4.47;;;22.20;87.00;;;;;;5069379;28;20063;-72
2023/08/30 07:54:24;;;;;;;6.55;3.90;;;22.10;86.90;;;;;;5095605;28;20043;-72
2023/08/30 07:56:50;;;;;;;5.70;4.22;;;22.30;89.90;;;;;;5087813;28;20033;-73
2023/08/30 07:59:16;;;;;;;6.85;4.30;;;22.30;87.00;;;;;;5075717;28;20425;-73
2023/08/30 08:01:42;;;;;;;6.25;4.43;;;22.40;89.80;;;;;;5088100;28;20052;-73
2023/08/30 08:04:08;;;;;;;7.68;4.22;;;22.30;87.00;;;;;;5084034;28;20070;-73
2023/08/30 08:06:33;;;;;;;6.68;4.28;;;22.30;89.50;;;;;;5088012;28;20111;-67
2023/08/30 08:08:59;;;;;;;6.80;4.38;;;22.10;87.00;;;;;;5074085;28;20554;-66
2023/08/30 08:11:25;;;;;;;7.82;4.15;;;22.30;87.00;;;;;;5074748;28;20105;-71
2023/08/30 08:13:51;;;;;;;6.68;4.13;;;22.20;89.30;;;;;;5088154;28;20044;-68
2023/08/30 08:16:17;;;;;;;7.40;4.00;;;22.30;89.80;;;;;;5094926;28;20204;-73
2023/08/30 08:18:43;;;;;;;5.90;3.78;;;22.60;90.00;;;;;;5094825;28;20036;-73
2023/08/30 08:21:09;;;;;;;7.28;4.43;;;22.40;86.90;;;;;;5093111;28;20044;-72
2023/08/30 08:23:34;;;;;;;8.68;4.40;;;22.20;89.70;;;;;;5083495;28;20048;-70
2023/08/30 08:26:00;;;;;;;6.47;4.57;;;22.40;86.80;;;;;;5074504;28;20550;-69
2023/08/30 08:28:26;;;;;;;7.10;4.50;;;22.50;89.30;;;;;;5074626;28;20052;-72
2023/08/30 08:30:52;;;;;;;7.70;4.18;;;22.40;89.20;;;;;;5081048;28;20469;-69
2023/08/30 08:33:18;;;;;;;6.80;4.35;;;22.30;89.10;;;;;;5074969;28;20090;-68
2023/08/30 08:35:44;;;;;;;6.70;4.43;;;22.40;89.50;;;;;;5059829;28;20131;-69
2023/08/30 08:38:10;;;;;;;6.85;4.47;;;22.50;86.60;;;;;;5076508;28;20055;-71
2023/08/30 08:40:39;;;;;;;6.82;4.65;;;22.40;86.90;;;;;;5064888;28;20039;-71
2023/08/30 08:43:05;;;;;;;6.20;4.35;;;22.30;86.70;;;;;;5023561;28;20048;-69
2023/08/30 08:45:37;;;;;;;6.32;4.60;;;22.50;86.70;;;;;;5073315;28;20088;-70
2023/08/30 08:48:04;;;;;;;7.03;4.03;;;22.60;87.20;;;;;;5076106;28;20059;-72
2023/08/30 08:50:30;;;;;;;7.03;4.25;;;22.20;86.60;;;;;;5076514;28;20487;-71
2023/08/30 08:52:56;;;;;;;7.60;4.60;;;22.40;86.70;;;;;;5076106;28;20044;-71
2023/08/30 08:55:22;;;;;;;7.35;4.55;;;22.50;87.10;;;;;;5063412;28;20045;-68
2023/08/30 08:57:48;;;;;;;9.05;4.40;;;22.40;86.30;;;;;;5057828;28;20415;-74
2023/08/30 09:00:16;;;;;;;7.22;4.50;;;22.40;86.50;;;;;;5089051;28;20099;-66
2023/08/30 09:02:42;;;;;;;7.32;4.50;;;22.30;86.50;;;;;;5094359;28;20109;-67
2023/08/30 09:05:08;;;;;;;8.00;4.38;;;22.30;86.70;;;;;;5059565;28;20051;-71
2023/08/30 09:07:34;;;;;;;6.13;4.32;;;22.60;90.00;;;;;;5059039;28;20204;-68
2023/08/30 09:10:00;;;;;;;7.78;4.60;;;22.40;90.00;;;;;;5091249;28;20118;-68
2023/08/30 09:12:26;;;;;;;6.80;4.40;;;22.30;86.70;;;;;;5063492;28;20480;-70
2023/08/30 09:14:55;;;;;;;7.65;4.72;;;22.40;89.90;;;;;;5089768;28;20051;-67
2023/08/30 09:17:21;;;;;;;7.10;5.00;;;22.20;87.00;;;;;;5093172;28;20127;-69
2023/08/30 09:19:47;;;;;;;6.90;4.50;;;22.60;86.60;;;;;;5087375;28;20051;-68
2023/08/30 09:22:13;;;;;;;8.20;4.90;;;22.30;86.60;;;;;;5093933;28;20047;-68
2023/08/30 09:24:39;;;;;;;7.15;4.65;;;22.30;89.30;;;;;;5093575;28;20075;-69
2023/08/30 09:27:05;;;;;;;6.97;4.80;;;22.60;89.60;;;;;;5085751;28;20052;-70
2023/08/30 09:29:31;;;;;;;7.13;4.75;;;22.70;86.70;;;;;;5076778;28;20049;-65
2023/08/30 09:31:57;;;;;;;6.90;4.60;;;22.60;88.80;;;;;;5079817;28;20526;-71
2023/08/30 09:34:25;;;;;;;7.97;4.80;;;22.60;86.30;;;;;;5090334;28;20140;-67
2023/08/30 09:36:51;;;;;;;6.47;4.43;;;22.70;86.60;;;;;;5073799;28;20047;-65
2023/08/30 09:39:17;;;;;;;7.50;4.72;;;22.50;89.40;;;;;;5080284;28;20060;-67
2023/08/30 09:41:47;;;;;;;6.13;4.43;;;22.40;86.30;;;;;;5081146;28;20410;-69
2023/08/30 09:44:13;;;;;;;8.85;5.20;;;22.40;87.00;;;;;;5054923;28;20083;-74
2023/08/30 09:46:44;;;;;;;6.88;4.57;;;22.70;86.40;;;;;;5074511;28;20402;-72
2023/08/30 09:49:10;;;;;;;6.78;4.53;;;22.70;87.10;;;;;;5053036;28;20044;-66
2023/08/30 09:51:37;;;;;;;8.55;5.13;;;22.90;86.30;;;;;;5029865;28;20105;-71
2023/08/30 09:54:04;;;;;;;7.07;4.85;;;22.70;86.20;;;;;;5038599;28;20127;-68
2023/08/30 09:56:31;;;;;;;7.68;4.95;;;22.90;86.10;;;;;;5055840;28;20391;-69
2023/08/30 09:58:59;;;;;;;6.45;4.75;;;22.70;89.00;;;;;;5037808;28;20110;-73
2023/08/30 10:01:26;;;;;;;7.13;5.03;;;22.70;85.90;;;;;;5054789;28;20486;-67
2023/08/30 10:03:53;;;;;;;8.25;5.28;;;22.80;89.10;;;;;;5038746;28;20041;-71
2023/08/30 10:06:18;;;;;;;7.82;4.82;;;22.70;88.80;;;;;;5057672;28;20131;-69
2023/08/30 10:08:45;;;;;;;7.13;4.78;;;22.90;85.90;;;;;;5091364;28;20139;-65
2023/08/30 10:11:11;;;;;;;7.50;5.07;;;23.00;85.90;;;;;;5057205;28;20040;-61
2023/08/30 10:13:37;;;;;;;9.52;4.90;;;22.70;85.70;;;;;;5061719;28;20052;-61
2023/08/30 10:16:03;;;;;;;7.47;4.85;;;23.10;89.30;;;;;;5069124;28;20036;-62
2023/08/30 10:18:30;;;;;;;7.43;4.35;;;22.60;88.30;;;;;;5071719;28;20135;-73
2023/08/30 10:20:56;;;;;;;7.32;4.65;;;22.70;85.90;;;;;;5038288;28;20067;-73
2023/08/30 10:23:22;;;;;;;7.32;4.40;;;22.70;88.80;;;;;;5052217;28;20138;-68
2023/08/30 10:25:49;;;;;;;8.27;4.55;;;22.80;86.00;;;;;;5072760;28;20076;-70
2023/08/30 10:28:15;;;;;;;7.28;4.90;;;22.40;86.10;;;;;;5035348;28;20062;-73
2023/08/30 10:30:40;;;;;;;7.18;4.10;;;22.40;85.90;;;;;;5069967;28;20040;-67
2023/08/30 10:33:16;;;;;;;7.30;4.80;;;22.70;86.10;;;;;;5063631;28;20509;-73
2023/08/30 10:35:51;;;;;;;7.07;4.32;;;22.80;85.10;;;;;;5054843;28;20044;-72
2023/08/30 10:38:29;;;;;;;6.65;4.22;;;22.60;86.40;;;;;;5055645;28;20161;-64
2023/08/30 10:40:55;;;;;;;6.68;4.47;;;22.80;86.60;;;;;;5072327;28;20171;-73
2023/08/30 10:43:33;;;;;;;6.43;4.10;;;22.60;86.30;;;;;;5085118;28;20424;-72
2023/08/30 10:46:03;;;;;;;6.32;4.10;;;22.40;86.70;;;;;;5077379;28;20120;-65
2023/08/30 10:48:38;;;;;;;6.43;3.80;;;22.70;86.80;;;;;;5072979;28;20114;-69
2023/08/30 10:51:07;;;;;;;6.35;4.03;;;22.50;89.20;;;;;;5072092;28;20048;-71
2023/08/30 10:53:33;;;;;;;6.10;4.00;;;22.40;86.50;;;;;;5037759;28;20055;-67
2023/08/30 10:56:29;;;;;;;6.72;4.50;;;22.40;89.30;;;;;;5077989;28;20044;-69
2023/08/30 10:58:55;;;;;;;5.90;3.95;;;22.50;85.30;;;;;;5090588;28;20079;-70
2023/08/30 11:01:21;;;;;;;6.97;4.20;;;22.60;89.30;;;;;;5089568;28;20404;-72
2023/08/30 11:03:46;;;;;;;7.90;4.25;;;22.40;86.10;;;;;;5089544;28;20043;-65
2023/08/30 11:06:17;;;;;;;6.18;4.30;;;22.60;86.10;;;;;;5069572;28;20046;-69
2023/08/30 11:08:43;;;;;;;6.38;4.07;;;22.60;86.40;;;;;;5035333;28;20051;-66
2023/08/30 11:11:10;;;;;;;7.55;3.95;;;22.70;85.90;;;;;;5072306;28;20106;-68
2023/08/30 11:13:36;;;;;;;7.57;4.03;;;22.80;86.20;;;;;;5072437;28;20508;-73
2023/08/30 11:16:05;;;;;;;7.63;3.90;;;22.50;85.70;;;;;;5054004;28;20123;-74
2023/08/30 11:18:36;;;;;;;8.10;3.85;;;22.80;85.40;;;;;;5036352;28;20052;-70
2023/08/30 11:21:02;;;;;;;5.95;3.90;;;22.70;86.00;;;;;;5054134;28;20060;-63
2023/08/30 11:23:28;;;;;;;6.38;3.53;;;22.80;85.60;;;;;;5072183;28;20520;-65
2023/08/30 11:25:54;;;;;;;5.95;3.70;;;22.60;85.80;;;;;;5053845;28;20131;-63
2023/08/30 11:28:24;;;;;;;5.60;3.80;;;22.70;85.20;;;;;;5060634;28;20464;-65
2023/08/30 11:30:54;;;;;;;5.78;3.42;;;22.70;85.80;;;;;;5071102;28;20080;-64
2023/08/30 11:33:20;;;;;;;6.78;3.63;;;22.90;84.30;;;;;;5066538;28;20102;-62
2023/08/30 11:35:46;;;;;;;5.72;3.30;;;22.90;88.80;;;;;;5037100;28;20494;-67
2023/08/30 11:38:13;;;;;;;6.15;3.67;;;23.10;85.70;;;;;;5053173;28;20060;-65
2023/08/30 11:40:39;;;;;;;6.60;3.85;;;22.90;85.90;;;;;;5064492;28;20040;-62
2023/08/30 11:43:06;;;;;;;8.18;3.97;;;22.90;88.20;;;;;;5070031;28;20394;-64
2023/08/30 11:45:33;;;;;;;5.47;3.63;;;22.80;88.10;;;;;;5075009;28;20145;-65
2023/08/30 11:48:00;;;;;;;5.68;3.67;;;23.00;85.70;;;;;;5057723;28;20048;-72
2023/08/30 11:50:26;;;;;;;5.65;3.50;;;22.90;85.80;;;;;;5057414;28;20044;-70
2023/08/30 11:52:52;;;;;;;5.18;3.30;;;23.10;85.90;;;;;;5050155;28;20157;-71
2023/08/30 11:55:18;;;;;;;6.57;3.13;;;22.90;85.60;;;;;;5076289;28;20054;-65
2023/08/30 11:57:45;;;;;;;6.50;3.67;;;23.00;85.90;;;;;;5040425;28;20128;-69
2023/08/30 12:00:11;;;;;;;6.53;3.65;;;22.80;85.70;;;;;;5073370;28;20417;-68
2023/08/30 12:02:38;;;;;;;5.75;3.58;;;23.00;85.20;;;;;;5075733;28;20063;-69
2023/08/30 12:05:04;;;;;;;5.75;3.60;;;22.60;85.80;;;;;;5062153;28;20418;-71
2023/08/30 12:07:30;;;;;;;6.32;3.33;;;22.90;88.60;;;;;;5075127;28;20049;-70
2023/08/30 12:10:06;;;;;;;5.82;3.60;;;22.80;85.80;;;;;;5075212;28;20508;-71
2023/08/30 12:12:32;;;;;;;5.68;3.30;;;22.80;85.70;;;;;;5055148;28;20155;-66
2023/08/30 12:14:57;;;;;;;5.13;3.33;;;22.70;85.70;;;;;;5079830;28;20135;-69
2023/08/30 12:17:23;;;;;;;5.35;3.33;;;22.90;85.90;;;;;;5060390;28;20079;-66
2023/08/30 12:19:59;;;;;;;5.60;2.95;;;22.80;86.00;;;;;;5084747;28;20379;-71
2023/08/30 12:22:38;;;;;;;5.78;3.65;;;22.60;84.90;;;;;;5058595;28;20052;-70
2023/08/30 12:25:04;;;;;;;6.47;3.47;;;22.50;86.40;;;;;;5073892;28;20048;-70
2023/08/30 12:27:30;;;;;;;5.07;3.17;;;22.80;86.00;;;;;;5056484;28;20051;-68
2023/08/30 12:29:56;;;;;;;5.50;3.58;;;22.70;89.50;;;;;;5081994;28;20040;-68
2023/08/30 12:32:21;;;;;;;5.50;3.65;;;22.60;86.10;;;;;;5085539;28;20066;-72
2023/08/30 12:34:47;;;;;;;5.28;3.30;;;22.80;86.20;;;;;;5074305;28;20113;-67
2023/08/30 12:37:13;;;;;;;6.25;3.60;;;22.50;86.10;;;;;;5056997;28;20036;-65
2023/08/30 12:39:39;;;;;;;6.03;3.30;;;22.70;86.30;;;;;;5075134;28;20040;-72
2023/08/30 12:42:05;;;;;;;6.05;3.35;;;22.50;86.20;;;;;;5074056;28;20462;-71
2023/08/30 12:44:31;;;;;;;6.00;2.95;;;22.60;89.80;;;;;;5074106;28;20119;-70